Time;durP1;ratioP1;P1;durP2;ratioP2;P2;SDS_P1;SDS_P2;PMS_P1;PMS_P2;Temp;Humidity;BMP_temperature;BMP_pressure;BME280_temperature;BME280_humidity;BME280_pressure;Samples;Min_cycle;Max_cycle;Signal;HPM_P1;HPM_P2
2022/10/07 00:00:54;;;;;;;3.53;2.50;;;22.00;51.90;;;;;;5008336;28;20476;-80
2022/10/07 00:03:22;;;;;;;3.80;2.80;;;22.00;52.10;;;;;;5006562;28;20480;-80
2022/10/07 00:05:59;;;;;;;5.90;3.00;;;22.00;52.00;;;;;;4997970;28;20479;-79
2022/10/07 00:08:27;;;;;;;5.20;2.53;;;21.90;51.90;;;;;;5000258;28;20444;-79
2022/10/07 00:10:57;;;;;;;2.90;2.70;;;21.90;52.60;;;;;;5007075;28;20436;-80
2022/10/07 00:13:25;;;;;;;6.30;2.40;;;21.90;51.80;;;;;;5008593;28;20455;-80
2022/10/07 00:15:54;;;;;;;6.47;2.77;;;21.80;52.00;;;;;;5006943;28;20460;-79
2022/10/07 00:18:22;;;;;;;4.50;2.50;;;21.80;51.90;;;;;;5009719;28;20445;-80
2022/10/07 00:20:50;;;;;;;3.27;2.63;;;21.80;51.90;;;;;;5009228;28;20461;-80
2022/10/07 00:23:18;;;;;;;3.50;2.40;;;21.80;52.00;;;;;;5002240;28;20505;-79
2022/10/07 00:25:46;;;;;;;2.63;2.40;;;21.80;52.00;;;;;;5006270;28;20424;-80
2022/10/07 00:28:15;;;;;;;3.03;2.60;;;21.70;51.80;;;;;;5009068;28;20500;-80
2022/10/07 00:30:43;;;;;;;3.83;2.50;;;21.70;52.10;;;;;;5007694;28;20479;-80
2022/10/07 00:33:11;;;;;;;3.10;2.53;;;21.70;52.00;;;;;;5008357;28;20464;-80
2022/10/07 00:35:39;;;;;;;4.23;2.27;;;21.70;51.90;;;;;;5004033;28;20453;-80
2022/10/07 00:38:07;;;;;;;3.77;2.13;;;21.70;52.10;;;;;;5008674;28;20449;-79
2022/10/07 00:40:36;;;;;;;4.40;2.40;;;21.70;52.10;;;;;;5006457;28;20477;-80
2022/10/07 00:56:22;;;;;;;3.93;2.23;;;21.70;52.00;;;;;;5135317;27;21087;-81
2022/10/07 00:58:50;;;;;;;4.77;2.30;;;21.60;52.00;;;;;;5131906;28;20451;-81
2022/10/07 01:01:19;;;;;;;3.87;2.23;;;21.60;52.40;;;;;;5135720;28;20459;-82
2022/10/07 01:03:47;;;;;;;5.93;2.60;;;21.50;51.80;;;;;;5135234;28;20458;-81
2022/10/07 01:06:15;;;;;;;4.43;2.10;;;21.50;51.70;;;;;;5134978;28;20438;-82
2022/10/07 01:08:43;;;;;;;3.77;2.30;;;21.50;51.80;;;;;;5123147;28;20459;-81
2022/10/07 01:11:16;;;;;;;2.80;2.33;;;21.40;51.90;;;;;;5114934;28;20440;-82
2022/10/07 01:13:50;;;;;;;2.70;2.27;;;21.50;52.00;;;;;;5120251;28;20486;-81
2022/10/07 01:16:22;;;;;;;4.87;2.50;;;21.40;51.80;;;;;;5128673;28;20450;-81
2022/10/07 01:18:53;;;;;;;2.57;2.20;;;21.40;51.80;;;;;;5127227;28;20444;-81
2022/10/07 01:21:23;;;;;;;2.27;1.70;;;21.40;51.70;;;;;;5135189;28;20454;-80
2022/10/07 01:24:01;;;;;;;2.63;2.17;;;21.40;51.90;;;;;;5134208;28;20453;-82
2022/10/07 01:26:50;;;;;;;5.80;2.83;;;21.40;51.90;;;;;;5134826;28;20442;-82
2022/10/07 01:29:19;;;;;;;5.20;2.47;;;21.40;51.80;;;;;;5132874;28;20451;-81
2022/10/07 01:31:49;;;;;;;6.03;2.53;;;21.30;51.90;;;;;;5133790;28;20516;-81
2022/10/07 01:34:17;;;;;;;3.57;2.47;;;21.30;51.90;;;;;;5126724;28;20443;-81
2022/10/07 01:36:50;;;;;;;3.20;2.00;;;21.30;51.80;;;;;;5134736;28;20409;-82
2022/10/07 01:39:20;;;;;;;2.03;1.93;;;21.30;51.90;;;;;;5134922;28;20435;-80
2022/10/07 01:41:50;;;;;;;3.87;2.07;;;21.30;51.90;;;;;;5128264;28;20470;-82
2022/10/07 01:44:17;;;;;;;1.90;1.80;;;21.30;52.00;;;;;;5133982;28;20475;-81
2022/10/07 01:46:46;;;;;;;2.23;1.87;;;21.20;51.80;;;;;;5132832;28;20462;-81
2022/10/07 01:49:14;;;;;;;4.73;2.10;;;21.20;52.00;;;;;;5125554;28;20433;-81
2022/10/07 01:51:42;;;;;;;4.47;2.17;;;21.10;52.00;;;;;;5132577;28;20430;-81
2022/10/07 01:54:20;;;;;;;3.13;1.90;;;21.10;51.90;;;;;;5133885;28;20439;-82
2022/10/07 01:56:57;;;;;;;2.80;2.00;;;21.10;51.90;;;;;;5122437;28;21007;-81
2022/10/07 01:59:37;;;;;;;2.80;2.03;;;21.10;52.10;;;;;;5120127;28;20485;-82
2022/10/07 02:02:09;;;;;;;5.73;2.30;;;21.10;51.90;;;;;;5120202;28;20462;-81
2022/10/07 02:04:43;;;;;;;2.50;1.80;;;21.10;51.90;;;;;;5110627;27;20476;-81
2022/10/07 02:07:17;;;;;;;4.70;2.07;;;21.00;52.10;;;;;;5119895;28;20428;-81
2022/10/07 02:09:48;;;;;;;1.73;1.63;;;21.00;52.20;;;;;;5119269;28;20438;-81
2022/10/07 02:12:20;;;;;;;2.33;1.80;;;21.00;52.00;;;;;;5119793;28;20456;-80
2022/10/07 02:14:50;;;;;;;2.80;2.20;;;21.00;52.20;;;;;;5119026;28;20439;-81
2022/10/07 02:17:18;;;;;;;2.70;1.60;;;21.00;52.10;;;;;;5118678;28;20450;-82
2022/10/07 02:19:48;;;;;;;2.17;1.93;;;21.00;52.20;;;;;;5118710;28;20439;-81
2022/10/07 02:22:16;;;;;;;3.87;1.60;;;21.00;52.20;;;;;;5108665;28;20472;-83
2022/10/07 02:24:44;;;;;;;2.30;1.67;;;21.00;51.90;;;;;;5119504;28;20531;-81
2022/10/07 02:27:13;;;;;;;2.10;1.83;;;20.90;51.80;;;;;;5119125;28;20435;-81
2022/10/07 02:29:43;;;;;;;2.73;1.80;;;20.90;51.90;;;;;;5117164;28;20487;-79
2022/10/07 02:32:12;;;;;;;1.63;1.50;;;20.90;52.10;;;;;;5118825;28;20451;-82
2022/10/07 02:34:42;;;;;;;3.00;2.00;;;20.90;52.20;;;;;;5118424;28;20444;-81
2022/10/07 02:37:13;;;;;;;3.87;2.00;;;20.90;52.20;;;;;;5117695;28;20456;-81
2022/10/07 02:39:44;;;;;;;1.73;1.63;;;20.90;52.00;;;;;;5116617;28;20458;-80
2022/10/07 02:42:16;;;;;;;2.43;1.60;;;20.80;52.10;;;;;;5116533;28;20464;-81
2022/10/07 02:44:48;;;;;;;5.00;2.17;;;20.80;52.20;;;;;;5112811;28;20460;-81
2022/10/07 02:47:17;;;;;;;6.63;1.70;;;20.90;52.20;;;;;;5117894;28;20447;-83
2022/10/07 02:49:48;;;;;;;2.20;2.00;;;20.80;52.20;;;;;;5111231;28;20451;-82
2022/10/07 02:52:17;;;;;;;4.33;1.70;;;20.80;52.20;;;;;;5127757;28;20436;-82
2022/10/07 02:54:49;;;;;;;2.67;1.73;;;20.80;52.10;;;;;;5113701;28;20471;-82
2022/10/07 02:57:17;;;;;;;4.80;2.03;;;20.80;52.10;;;;;;5120182;28;20436;-82
2022/10/07 02:59:47;;;;;;;2.30;1.63;;;20.80;52.20;;;;;;5124719;28;20455;-82
2022/10/07 03:02:17;;;;;;;3.30;1.73;;;20.80;52.20;;;;;;5123798;27;20452;-83
2022/10/07 03:04:44;;;;;;;2.37;1.60;;;20.70;52.10;;;;;;5122638;28;20487;-82
2022/10/07 03:07:13;;;;;;;3.27;1.63;;;20.70;52.40;;;;;;5121887;28;20407;-81
2022/10/07 03:09:40;;;;;;;2.30;1.60;;;20.70;52.30;;;;;;5113276;28;20443;-82
2022/10/07 03:12:09;;;;;;;1.97;1.77;;;20.70;52.10;;;;;;5120188;28;20444;-82
2022/10/07 03:14:36;;;;;;;1.43;1.33;;;20.70;52.20;;;;;;5120202;28;20485;-82
2022/10/07 03:17:06;;;;;;;3.03;2.03;;;20.70;52.30;;;;;;5118775;28;20469;-82
2022/10/07 03:19:33;;;;;;;2.43;1.87;;;20.60;52.30;;;;;;5119085;28;20424;-82
2022/10/07 03:22:01;;;;;;;1.73;1.57;;;20.60;52.40;;;;;;5119326;28;20455;-82
2022/10/07 03:24:30;;;;;;;4.40;1.63;;;20.60;52.30;;;;;;5119380;28;20423;-82
2022/10/07 03:26:58;;;;;;;2.47;1.80;;;20.60;52.20;;;;;;5113779;28;20479;-82
2022/10/07 03:29:26;;;;;;;2.90;1.70;;;20.60;52.30;;;;;;5120784;28;20440;-82
2022/10/07 03:31:54;;;;;;;2.17;1.70;;;20.60;52.30;;;;;;5118543;28;20483;-83
2022/10/07 03:34:25;;;;;;;2.73;1.40;;;20.50;52.20;;;;;;5119891;28;20428;-83
2022/10/07 03:36:54;;;;;;;2.50;1.30;;;20.50;52.50;;;;;;5119604;28;20435;-83
2022/10/07 03:39:21;;;;;;;1.93;1.50;;;20.50;52.40;;;;;;5117244;28;20452;-81
2022/10/07 03:41:50;;;;;;;2.10;1.60;;;20.60;52.30;;;;;;5110270;28;20463;-81
2022/10/07 03:44:18;;;;;;;2.00;1.80;;;20.50;52.20;;;;;;5113715;28;20457;-83
2022/10/07 03:46:48;;;;;;;1.67;1.53;;;20.50;52.40;;;;;;5109677;28;20499;-82
2022/10/07 03:49:17;;;;;;;1.97;1.60;;;20.50;52.20;;;;;;5119408;28;20455;-81
2022/10/07 03:51:46;;;;;;;1.40;1.30;;;20.50;52.30;;;;;;5118914;28;20457;-82
2022/10/07 03:54:14;;;;;;;1.73;1.60;;;20.50;52.20;;;;;;5118960;28;20479;-83
2022/10/07 03:56:42;;;;;;;2.17;1.43;;;20.50;52.30;;;;;;5119385;28;20431;-81
2022/10/07 03:59:10;;;;;;;2.53;1.67;;;20.40;52.20;;;;;;5119376;28;20425;-83
2022/10/07 04:01:38;;;;;;;1.60;1.50;;;20.40;52.30;;;;;;5111516;28;20476;-82
2022/10/07 04:04:07;;;;;;;2.30;1.57;;;20.40;52.40;;;;;;5119336;28;20440;-82
2022/10/07 04:06:37;;;;;;;4.30;1.47;;;20.40;52.40;;;;;;5119215;28;20468;-83
2022/10/07 04:09:06;;;;;;;2.40;1.77;;;20.40;52.10;;;;;;5119227;28;20436;-81
2022/10/07 04:11:34;;;;;;;2.97;1.50;;;20.40;52.00;;;;;;5118626;28;20464;-82
2022/10/07 04:14:02;;;;;;;1.50;1.37;;;20.40;52.10;;;;;;5116213;28;20478;-83
2022/10/07 04:16:32;;;;;;;2.60;1.43;;;20.30;52.20;;;;;;5118672;28;20435;-82
2022/10/07 04:19:06;;;;;;;3.00;1.80;;;20.30;52.10;;;;;;5117623;28;20444;-83
2022/10/07 04:21:34;;;;;;;2.33;1.70;;;20.30;52.10;;;;;;5119089;28;20444;-83
2022/10/07 04:24:01;;;;;;;3.90;1.70;;;20.30;52.00;;;;;;5117616;28;20415;-82
2022/10/07 04:26:31;;;;;;;1.60;1.50;;;20.30;52.80;;;;;;5119234;28;20464;-83
2022/10/07 04:28:59;;;;;;;2.80;1.87;;;20.20;52.20;;;;;;5114201;28;20459;-83
2022/10/07 04:31:27;;;;;;;2.10;1.90;;;20.20;52.10;;;;;;5114948;28;20455;-83
2022/10/07 04:33:55;;;;;;;2.40;2.10;;;20.20;52.20;;;;;;5119270;28;20440;-83
2022/10/07 04:36:24;;;;;;;3.53;1.63;;;20.20;52.10;;;;;;5116492;28;20504;-81
2022/10/07 04:38:52;;;;;;;4.53;1.43;;;20.20;52.20;;;;;;5099345;28;20440;-82
2022/10/07 04:41:19;;;;;;;2.37;2.00;;;20.20;52.20;;;;;;5098990;28;20457;-82
2022/10/07 04:43:51;;;;;;;4.97;2.10;;;20.10;52.10;;;;;;5098421;28;20428;-82
2022/10/07 04:46:24;;;;;;;6.23;2.30;;;20.10;52.00;;;;;;5100472;28;20492;-81
2022/10/07 04:48:52;;;;;;;1.90;1.80;;;20.10;51.90;;;;;;5118196;28;20429;-82
2022/10/07 04:51:21;;;;;;;4.20;2.00;;;20.10;52.00;;;;;;5115182;28;20868;-82
2022/10/07 04:53:52;;;;;;;3.03;1.97;;;20.10;52.00;;;;;;5111701;28;20524;-82
2022/10/07 04:56:23;;;;;;;4.30;2.17;;;20.10;52.00;;;;;;5114713;28;20424;-81
2022/10/07 04:58:53;;;;;;;2.60;2.13;;;20.00;51.80;;;;;;5115955;28;20428;-82
2022/10/07 05:01:21;;;;;;;5.43;2.23;;;20.00;51.90;;;;;;5114490;28;20485;-82
2022/10/07 05:03:49;;;;;;;3.37;2.27;;;20.00;51.90;;;;;;5114525;28;20424;-82
2022/10/07 05:06:17;;;;;;;4.27;1.93;;;20.00;51.90;;;;;;5114209;28;20501;-81
2022/10/07 05:08:45;;;;;;;2.00;1.80;;;20.00;51.90;;;;;;5115384;28;20447;-82
2022/10/07 05:11:13;;;;;;;6.20;2.00;;;19.90;51.80;;;;;;5108076;28;20478;-84
2022/10/07 05:13:41;;;;;;;3.40;1.80;;;20.00;51.90;;;;;;5115214;28;20436;-82
2022/10/07 05:16:10;;;;;;;1.60;1.50;;;19.90;51.60;;;;;;5113834;28;20938;-82
2022/10/07 05:18:39;;;;;;;2.30;2.10;;;20.00;51.80;;;;;;5116186;28;20499;-82
2022/10/07 05:21:07;;;;;;;9.17;2.40;;;19.90;51.60;;;;;;5115984;28;20464;-82
2022/10/07 05:23:36;;;;;;;3.63;2.20;;;19.90;51.70;;;;;;5120085;28;20451;-81
2022/10/07 05:26:06;;;;;;;3.33;1.90;;;19.90;51.70;;;;;;5118829;28;20459;-82
2022/10/07 05:28:35;;;;;;;3.33;2.20;;;19.90;51.80;;;;;;5118621;28;20448;-82
2022/10/07 05:31:04;;;;;;;3.67;2.33;;;19.90;51.70;;;;;;5117902;28;20448;-81
2022/10/07 05:33:34;;;;;;;10.40;2.37;;;19.90;51.60;;;;;;5118636;28;20457;-82
2022/10/07 05:36:01;;;;;;;2.90;1.90;;;19.90;51.60;;;;;;5113780;28;20434;-83
2022/10/07 05:38:30;;;;;;;4.03;2.23;;;19.90;51.40;;;;;;5120554;28;20428;-81
2022/10/07 05:41:01;;;;;;;4.60;2.10;;;19.90;51.50;;;;;;5115903;28;20471;-82
2022/10/07 05:43:30;;;;;;;6.73;2.70;;;19.90;51.40;;;;;;5115447;28;20455;-82
2022/10/07 05:46:00;;;;;;;2.50;1.70;;;19.90;51.50;;;;;;5120440;28;20402;-82
2022/10/07 05:48:29;;;;;;;4.80;2.10;;;19.80;51.40;;;;;;5121719;28;20467;-80
2022/10/07 05:51:00;;;;;;;4.87;2.07;;;19.90;51.50;;;;;;5121697;28;20438;-83
2022/10/07 05:53:29;;;;;;;2.80;1.63;;;19.90;51.40;;;;;;5121161;28;20439;-84
2022/10/07 05:55:57;;;;;;;3.70;1.90;;;19.90;51.50;;;;;;5121406;28;20487;-82
2022/10/07 05:58:24;;;;;;;4.93;2.30;;;19.90;51.40;;;;;;5117261;28;20447;-82
2022/10/07 06:00:54;;;;;;;4.80;2.33;;;19.80;51.40;;;;;;5121020;28;20456;-82
2022/10/07 06:03:22;;;;;;;2.77;1.80;;;19.90;51.30;;;;;;5121206;28;20448;-82
2022/10/07 06:05:51;;;;;;;3.57;2.20;;;19.90;51.30;;;;;;5121238;28;20445;-82
2022/10/07 06:08:21;;;;;;;3.73;2.20;;;19.90;51.40;;;;;;5128815;28;20472;-83
2022/10/07 06:13:34;;;;;;;3.13;2.03;;;19.90;51.50;;;;;;5119953;28;20431;-82
2022/10/07 06:16:02;;;;;;;4.83;2.23;;;19.80;51.20;;;;;;5122913;28;20436;-84
2022/10/07 06:18:30;;;;;;;4.67;2.40;;;19.90;51.30;;;;;;5121433;28;20497;-82
2022/10/07 06:20:59;;;;;;;10.53;2.30;;;19.90;51.40;;;;;;5115178;28;20475;-82
2022/10/07 06:23:29;;;;;;;4.17;2.20;;;19.90;51.20;;;;;;5122737;28;20414;-81
2022/10/07 06:25:58;;;;;;;3.60;2.20;;;19.90;51.20;;;;;;5120619;28;20439;-82
2022/10/07 06:28:25;;;;;;;2.43;1.80;;;19.90;51.20;;;;;;5121229;28;20443;-83
2022/10/07 06:30:54;;;;;;;5.43;2.23;;;20.00;51.20;;;;;;5121141;28;20462;-82
2022/10/07 06:33:21;;;;;;;6.70;2.43;;;19.90;51.10;;;;;;5118010;28;20444;-82
2022/10/07 06:35:50;;;;;;;5.20;2.00;;;19.90;51.10;;;;;;5120826;28;20453;-82
2022/10/07 06:38:17;;;;;;;2.90;2.00;;;19.90;51.10;;;;;;5121150;28;20432;-82
2022/10/07 06:40:57;;;;;;;10.67;2.13;;;19.90;51.10;;;;;;5120576;28;20470;-82
2022/10/07 06:43:26;;;;;;;4.53;2.20;;;20.00;51.20;;;;;;5111719;28;20487;-83
2022/10/07 06:45:57;;;;;;;2.63;2.10;;;20.00;51.20;;;;;;5117399;28;20463;-80
2022/10/07 06:48:25;;;;;;;5.57;2.23;;;20.00;51.20;;;;;;5119656;28;20471;-83
2022/10/07 06:50:54;;;;;;;4.83;2.63;;;20.00;51.10;;;;;;5115183;28;20471;-83
2022/10/07 06:53:22;;;;;;;4.30;2.37;;;20.00;51.10;;;;;;5114977;28;20440;-83
2022/10/07 06:55:53;;;;;;;7.43;2.77;;;20.10;51.10;;;;;;5104746;28;20440;-83
2022/10/07 06:58:22;;;;;;;5.37;2.50;;;20.10;51.00;;;;;;5120333;28;20435;-82
2022/10/07 07:00:51;;;;;;;8.10;2.23;;;20.10;50.90;;;;;;5113734;28;20468;-82
2022/10/07 07:03:19;;;;;;;10.43;2.43;;;20.10;50.80;;;;;;5120708;28;20428;-83
2022/10/07 07:05:47;;;;;;;9.40;2.30;;;20.10;50.90;;;;;;5117423;28;20452;-83
2022/10/07 07:08:18;;;;;;;6.90;2.30;;;20.10;50.90;;;;;;5116492;28;20470;-82
2022/10/07 07:10:47;;;;;;;7.77;2.40;;;20.10;50.90;;;;;;5119101;28;20448;-82
2022/10/07 07:13:14;;;;;;;5.07;2.33;;;20.10;50.90;;;;;;5120192;28;20505;-82
2022/10/07 07:15:53;;;;;;;5.67;2.27;;;20.20;50.90;;;;;;5119301;28;20439;-82
2022/10/07 07:18:21;;;;;;;2.00;1.80;;;20.20;50.90;;;;;;5117412;28;20437;-84
2022/10/07 07:20:48;;;;;;;3.33;2.20;;;20.20;50.90;;;;;;5119903;28;20419;-83
2022/10/07 07:23:17;;;;;;;5.20;2.47;;;20.20;50.80;;;;;;5118105;28;20455;-81
2022/10/07 07:25:44;;;;;;;4.67;1.93;;;20.20;50.70;;;;;;5118590;28;20432;-83
2022/10/07 07:28:14;;;;;;;4.13;2.30;;;20.20;50.70;;;;;;5117637;28;20438;-83
2022/10/07 07:30:43;;;;;;;3.93;2.30;;;20.20;50.70;;;;;;5111875;28;20507;-84
2022/10/07 07:33:12;;;;;;;4.07;2.50;;;20.20;50.60;;;;;;5117939;28;20444;-85
2022/10/07 07:35:42;;;;;;;7.00;2.47;;;20.30;50.70;;;;;;5113865;28;20448;-82
2022/10/07 07:38:10;;;;;;;8.63;2.93;;;20.30;50.50;;;;;;5112265;28;20444;-83
2022/10/07 07:40:38;;;;;;;7.50;3.00;;;20.30;50.40;;;;;;5116529;28;20456;-83
2022/10/07 07:43:06;;;;;;;5.10;2.37;;;20.30;50.40;;;;;;5116733;28;20443;-81
2022/10/07 07:45:35;;;;;;;2.58;2.25;;;20.30;50.40;;;;;;5109706;28;20350;-82
2022/10/07 07:48:05;;;;;;;7.47;2.07;;;20.40;50.30;;;;;;5114770;28;20220;-83
2022/10/07 07:50:33;;;;;;;6.83;2.80;;;20.40;50.10;;;;;;5100802;28;20462;-83
2022/10/07 07:53:03;;;;;;;7.00;2.80;;;20.50;50.10;;;;;;5109134;28;20447;-83
2022/10/07 07:55:31;;;;;;;5.67;2.47;;;20.50;50.00;;;;;;5101407;28;20955;-82
2022/10/07 07:57:59;;;;;;;5.00;2.30;;;20.60;49.50;;;;;;5111053;28;20452;-79
2022/10/07 08:00:27;;;;;;;4.93;2.73;;;20.60;49.80;;;;;;5111166;28;20447;-81
2022/10/07 08:02:55;;;;;;;3.80;2.03;;;20.70;49.80;;;;;;5103070;28;20444;-80
2022/10/07 08:05:24;;;;;;;7.67;3.30;;;20.80;50.00;;;;;;5108490;28;20431;-82
2022/10/07 08:07:52;;;;;;;5.93;2.50;;;21.00;49.90;;;;;;5102772;28;20478;-80
2022/10/07 08:10:20;;;;;;;6.30;2.30;;;21.20;49.90;;;;;;5107672;28;20456;-81
2022/10/07 08:12:49;;;;;;;6.63;2.40;;;21.30;49.70;;;;;;5105254;28;20456;-80
2022/10/07 08:15:17;;;;;;;6.10;2.50;;;21.50;49.80;;;;;;5110619;28;20453;-81
2022/10/07 08:17:45;;;;;;;6.43;2.80;;;21.70;49.70;;;;;;5109387;28;20460;-83
2022/10/07 08:20:14;;;;;;;4.20;2.13;;;21.90;49.70;;;;;;5104108;28;20422;-82
2022/10/07 08:22:44;;;;;;;7.33;2.67;;;22.10;49.60;;;;;;5101260;28;20469;-82
2022/10/07 08:25:13;;;;;;;4.07;2.60;;;22.30;49.50;;;;;;5104875;28;20825;-81
2022/10/07 08:27:42;;;;;;;8.33;2.40;;;22.50;49.50;;;;;;5106603;28;20455;-81
2022/10/07 08:30:11;;;;;;;6.53;2.40;;;22.70;49.30;;;;;;5103242;28;20459;-81
2022/10/07 08:32:39;;;;;;;6.50;2.30;;;22.90;49.20;;;;;;5104268;28;20517;-80
2022/10/07 08:35:08;;;;;;;3.60;2.00;;;23.10;49.10;;;;;;5105844;28;20452;-80
2022/10/07 08:37:36;;;;;;;9.47;2.90;;;23.30;49.00;;;;;;5107242;28;20440;-81
2022/10/07 08:40:06;;;;;;;5.20;2.47;;;23.50;48.80;;;;;;5105461;28;20531;-81
2022/10/07 08:42:36;;;;;;;4.47;2.40;;;23.70;48.70;;;;;;5102893;28;20510;-83
2022/10/07 08:45:07;;;;;;;7.63;2.43;;;23.90;48.60;;;;;;5105707;28;20458;-82
2022/10/07 08:47:37;;;;;;;7.20;2.57;;;24.00;48.40;;;;;;5099863;28;20424;-80
2022/10/07 08:50:08;;;;;;;4.90;2.00;;;24.20;48.20;;;;;;5109495;28;20478;-80
2022/10/07 08:52:49;;;;;;;5.73;2.10;;;24.40;48.20;;;;;;5107583;28;20987;-81
2022/10/07 08:55:22;;;;;;;5.00;2.50;;;24.70;48.00;;;;;;5111076;28;20460;-81
2022/10/07 08:58:21;;;;;;;7.90;2.37;;;24.80;47.70;;;;;;5103588;28;20456;-80
2022/10/07 09:00:52;;;;;;;4.33;2.10;;;25.10;47.60;;;;;;5100733;28;20442;-81
2022/10/07 09:03:27;;;;;;;9.10;2.20;;;25.30;47.40;;;;;;5104904;28;20461;-82
2022/10/07 09:05:57;;;;;;;5.13;1.90;;;25.50;47.10;;;;;;5113212;27;20417;-79
2022/10/07 09:08:28;;;;;;;5.13;2.30;;;25.80;46.90;;;;;;5121244;27;20473;-82
2022/10/07 09:11:14;;;;;;;3.50;2.07;;;26.00;46.60;;;;;;5111073;28;20529;-82
2022/10/07 09:13:45;;;;;;;7.40;2.23;;;26.20;46.30;;;;;;5126486;28;20411;-83
2022/10/07 09:16:15;;;;;;;5.33;2.40;;;26.50;46.00;;;;;;5122084;28;20491;-81
2022/10/07 09:18:46;;;;;;;8.47;2.40;;;26.70;45.80;;;;;;5131320;27;20458;-82
2022/10/07 09:21:17;;;;;;;6.30;2.20;;;26.90;45.40;;;;;;5123755;28;20447;-80
2022/10/07 09:23:45;;;;;;;5.83;2.30;;;27.10;45.20;;;;;;5124566;27;20453;-82
2022/10/07 09:26:16;;;;;;;6.37;2.50;;;27.30;44.90;;;;;;5126542;28;20539;-82
2022/10/07 09:28:44;;;;;;;5.37;2.60;;;27.50;44.70;;;;;;5127342;28;20463;-80
2022/10/07 09:31:15;;;;;;;10.40;2.80;;;27.70;44.50;;;;;;5121621;28;20464;-82
2022/10/07 09:33:44;;;;;;;2.70;2.27;;;27.90;44.20;;;;;;5118742;28;20535;-84
2022/10/07 09:36:18;;;;;;;4.50;1.83;;;28.10;43.90;;;;;;5130332;27;20551;-83
2022/10/07 09:38:47;;;;;;;4.27;2.17;;;28.30;43.60;;;;;;5123105;28;20448;-80
2022/10/07 09:41:19;;;;;;;4.03;2.10;;;28.50;43.60;;;;;;5117698;28;20498;-82
2022/10/07 09:44:01;;;;;;;3.63;2.33;;;28.70;43.20;;;;;;5118498;28;20456;-82
2022/10/07 09:46:41;;;;;;;5.93;2.30;;;28.90;43.00;;;;;;5127770;28;20459;-82
2022/10/07 09:49:29;;;;;;;4.10;2.40;;;29.10;42.80;;;;;;5109133;28;20448;-82
2022/10/07 09:51:59;;;;;;;7.33;2.33;;;29.30;42.60;;;;;;5111676;28;20472;-82
2022/10/07 09:54:27;;;;;;;12.67;2.57;;;29.60;42.10;;;;;;5118334;28;20445;-80
2022/10/07 09:56:57;;;;;;;4.53;2.80;;;29.30;42.00;;;;;;5111390;28;20458;-84
2022/10/07 09:59:27;;;;;;;7.33;3.07;;;29.20;42.40;;;;;;5109965;28;20482;-83
2022/10/07 10:01:56;;;;;;;5.40;2.90;;;29.00;42.80;;;;;;5102607;28;20475;-80
2022/10/07 10:04:30;;;;;;;3.70;2.73;;;28.90;43.10;;;;;;5105510;28;20448;-82
2022/10/07 10:07:01;;;;;;;6.73;3.20;;;28.90;43.50;;;;;;5099749;28;20438;-82
2022/10/07 10:09:29;;;;;;;8.87;3.30;;;28.80;43.80;;;;;;5115688;28;20440;-80
2022/10/07 10:12:09;;;;;;;13.97;3.30;;;28.80;43.80;;;;;;5106812;28;20499;-81
2022/10/07 10:14:45;;;;;;;6.70;3.50;;;28.80;44.00;;;;;;5112412;28;20476;-82
2022/10/07 10:17:22;;;;;;;7.10;3.43;;;28.70;44.20;;;;;;5110251;28;20444;-82
2022/10/07 10:19:50;;;;;;;15.27;3.57;;;28.80;44.10;;;;;;5104336;27;20463;-81
2022/10/07 10:22:25;;;;;;;8.50;3.90;;;28.80;44.00;;;;;;5117338;27;20446;-81
2022/10/07 10:27:46;;;;;;;7.47;3.60;;;28.80;44.10;;;;;;5113859;28;20454;-82
2022/10/07 10:30:18;;;;;;;5.30;3.50;;;28.80;44.00;;;;;;5112958;28;20812;-80
2022/10/07 10:33:08;;;;;;;8.97;3.63;;;28.80;44.10;;;;;;5113642;28;20534;-80
2022/10/07 10:35:39;;;;;;;4.53;3.40;;;28.90;44.10;;;;;;5114597;28;20443;-81
2022/10/07 10:38:22;;;;;;;5.17;3.50;;;28.90;44.00;;;;;;5104111;28;20455;-82
2022/10/07 10:40:53;;;;;;;6.70;3.37;;;28.90;43.80;;;;;;5108153;28;20851;-82
2022/10/07 10:43:26;;;;;;;8.70;3.53;;;29.00;44.60;;;;;;5114650;28;20822;-82
2022/10/07 10:46:07;;;;;;;3.80;3.20;;;29.00;44.00;;;;;;5106387;28;20459;-82
2022/10/07 10:48:37;;;;;;;4.40;3.40;;;29.00;43.90;;;;;;5111128;28;20448;-79
2022/10/07 10:51:12;;;;;;;5.80;3.67;;;29.10;44.00;;;;;;5109657;28;20478;-80
2022/10/07 10:53:45;;;;;;;6.10;3.30;;;29.20;44.00;;;;;;5112541;28;20469;-83
2022/10/07 10:56:25;;;;;;;4.33;3.30;;;29.20;43.60;;;;;;5111895;28;20460;-81
2022/10/07 10:59:00;;;;;;;6.53;3.57;;;29.20;43.70;;;;;;5104236;28;20455;-81
2022/10/07 11:01:32;;;;;;;3.93;3.20;;;29.40;43.60;;;;;;5107495;28;20558;-80
2022/10/07 11:04:20;;;;;;;6.80;4.17;;;29.90;43.20;;;;;;5113318;28;20459;-78
2022/10/07 11:06:51;;;;;;;4.63;3.67;;;30.70;41.60;;;;;;5109562;28;20451;-82
2022/10/07 11:09:22;;;;;;;3.77;3.43;;;31.50;40.60;;;;;;5109716;28;20451;-84
2022/10/07 11:11:57;;;;;;;3.27;3.00;;;32.40;39.40;;;;;;5108158;28;20471;-83
2022/10/07 11:14:27;;;;;;;6.00;3.80;;;33.10;37.80;;;;;;5098776;28;20444;-83
2022/10/07 11:16:56;;;;;;;4.77;3.70;;;33.60;37.10;;;;;;5100232;28;20533;-82
2022/10/07 11:19:26;;;;;;;14.60;3.50;;;34.30;36.20;;;;;;5116061;28;20471;-83
2022/10/07 11:21:56;;;;;;;6.60;3.10;;;34.60;35.50;;;;;;5112138;28;20479;-85
2022/10/07 11:24:26;;;;;;;4.10;3.40;;;35.20;34.70;;;;;;5114361;28;20470;-82
2022/10/07 11:26:57;;;;;;;4.53;3.40;;;35.90;33.40;;;;;;5110115;28;20459;-81
2022/10/07 11:29:31;;;;;;;5.70;3.20;;;36.30;32.40;;;;;;5115511;28;20455;-83
2022/10/07 11:32:02;;;;;;;3.23;2.93;;;36.70;31.80;;;;;;5111553;28;20464;-83
2022/10/07 11:34:35;;;;;;;2.87;2.67;;;37.10;31.20;;;;;;5115350;28;20432;-83
2022/10/07 11:37:05;;;;;;;4.93;3.30;;;37.30;30.60;;;;;;5114509;28;20451;-82
2022/10/07 11:39:36;;;;;;;10.40;3.30;;;37.50;30.50;;;;;;5114304;28;20472;-82
2022/10/07 11:42:06;;;;;;;6.40;3.10;;;37.60;30.00;;;;;;5114707;28;20486;-82
2022/10/07 11:44:39;;;;;;;3.20;2.90;;;37.60;29.90;;;;;;5113464;28;20448;-81
2022/10/07 11:47:11;;;;;;;2.97;2.80;;;37.90;29.90;;;;;;5114174;28;20452;-83
2022/10/07 11:49:41;;;;;;;3.63;2.93;;;37.90;29.70;;;;;;5109234;28;20535;-82
2022/10/07 11:52:10;;;;;;;3.13;2.93;;;38.00;29.80;;;;;;5105631;28;20470;-80
2022/10/07 11:54:40;;;;;;;3.40;3.13;;;38.00;29.60;;;;;;5113614;28;20447;-81
2022/10/07 11:57:18;;;;;;;3.10;2.90;;;37.30;29.30;;;;;;5114299;28;20444;-82
2022/10/07 11:59:47;;;;;;;6.67;2.83;;;37.00;30.40;;;;;;5099862;28;20472;-81
2022/10/07 12:02:40;;;;;;;3.27;3.03;;;36.40;30.80;;;;;;5108365;28;20475;-82
2022/10/07 12:05:48;;;;;;;3.90;3.27;;;35.80;31.50;;;;;;5106276;28;20451;-80
2022/10/07 12:08:26;;;;;;;3.40;3.20;;;35.70;32.50;;;;;;5114121;28;20443;-82
2022/10/07 12:10:54;;;;;;;3.33;3.13;;;35.80;32.70;;;;;;5115364;28;20962;-81
2022/10/07 12:13:36;;;;;;;3.70;3.37;;;35.20;32.90;;;;;;5113899;28;20448;-83
2022/10/07 12:16:48;;;;;;;3.40;3.07;;;36.10;32.30;;;;;;5110935;28;20443;-81
2022/10/07 12:19:18;;;;;;;3.90;3.30;;;35.60;32.50;;;;;;5104431;28;20443;-82
2022/10/07 12:22:18;;;;;;;3.30;3.10;;;34.50;33.50;;;;;;5115801;28;20484;-82
2022/10/07 12:25:08;;;;;;;6.00;3.23;;;34.60;33.30;;;;;;5107304;28;20439;-81
2022/10/07 12:27:37;;;;;;;5.47;3.17;;;33.90;34.10;;;;;;5112260;28;20466;-82
2022/10/07 12:30:22;;;;;;;3.87;3.50;;;32.90;35.90;;;;;;5111534;28;20457;-82
2022/10/07 12:32:56;;;;;;;3.50;3.30;;;32.70;37.70;;;;;;5115284;28;20451;-82
2022/10/07 12:35:41;;;;;;;3.53;3.23;;;34.10;35.40;;;;;;5118315;28;20436;-81
2022/10/07 12:38:14;;;;;;;3.60;3.30;;;35.00;33.90;;;;;;5119927;28;20442;-82
2022/10/07 12:40:42;;;;;;;3.30;3.10;;;35.90;32.60;;;;;;5132928;28;20484;-84
2022/10/07 12:43:21;;;;;;;3.00;2.80;;;36.20;32.10;;;;;;5132339;28;20473;-85
2022/10/07 12:45:48;;;;;;;3.27;3.10;;;35.50;31.60;;;;;;5131293;28;20473;-82
2022/10/07 12:48:20;;;;;;;5.17;3.63;;;34.30;33.70;;;;;;5109682;28;20475;-82
2022/10/07 12:50:50;;;;;;;4.43;3.30;;;33.50;35.10;;;;;;5121669;28;20467;-82
2022/10/07 12:53:19;;;;;;;3.97;3.70;;;33.60;35.40;;;;;;5131466;28;20428;-83
2022/10/07 12:55:48;;;;;;;3.80;3.47;;;33.10;35.70;;;;;;5131342;28;20459;-83
2022/10/07 13:01:26;;;;;;;3.77;3.47;;;32.60;37.30;;;;;;5114092;28;20480;-82
2022/10/07 13:04:17;;;;;;;5.33;3.70;;;32.90;37.00;;;;;;5108168;28;20528;-82
2022/10/07 13:07:26;;;;;;;4.83;3.53;;;33.40;36.00;;;;;;5115363;28;20477;-82
2022/10/07 13:10:22;;;;;;;4.20;3.27;;;33.30;35.60;;;;;;5118679;28;20436;-82
2022/10/07 13:12:51;;;;;;;3.83;3.60;;;33.30;35.30;;;;;;5112231;28;20443;-83
2022/10/07 13:15:26;;;;;;;4.90;3.50;;;32.60;36.40;;;;;;5116516;28;20444;-82
2022/10/07 13:17:56;;;;;;;5.00;3.97;;;32.20;37.20;;;;;;5117824;28;20443;-83
2022/10/07 13:20:43;;;;;;;3.40;3.13;;;32.00;38.20;;;;;;5116421;28;20505;-82
2022/10/07 13:23:15;;;;;;;3.73;3.47;;;31.80;38.30;;;;;;5112442;28;20436;-81
2022/10/07 13:25:48;;;;;;;4.83;3.47;;;31.60;38.60;;;;;;5108810;28;20444;-81
2022/10/07 13:28:16;;;;;;;3.83;3.53;;;31.30;38.80;;;;;;5117907;28;20450;-81